Aeroporto :
LOGIN :

Iscrizione | Disclaimer

   EN    FR    IT 

 










Sommario :    VFR   VFR Marginale   IFR   IFR Intensivo   IFR Molto Intensivo
Visibilità : 
Base nubi : 
>= 8 km
>= 3000ft
5 / 8 km
1000 / 3000 ft
1500m / 5 km
500 / 1000 ft
800 / 1500m
200 / 500 ft
< 800m
< 200 ft
Simboli :   Temporali  Nebbia  Neve Forte  Precipitazioni Forti  Vento > 20 kt
SIGMETs :   Varie  Temporali  Ghiacco  Turbolenza  Onda orograficha  Ceneri Vulcaniche







- Altitudine del aeroporto : 665 ft
- Codice IATA : NOC


EIKN - Connaught / Knock- Ireland West

ULTIMO METAR :
  • 201930Z 27008KT 9999 SCT020CB BKN040 BKN060 10/07 Q1013 NOSIG

METARs OBSOLETI :
  • 201900Z 27011KT 9999 SCT020CB BKN040 BKN050 10/08 Q1013 NOSIG
  • 201830Z 29010KT 9999 SCT020CB BKN027 BKN060 11/06 Q1013 NOSIG
  • 201800Z 27015KT 9999 FEW020CB SCT032 BKN050 13/06 Q1012 NOSIG
  • 201730Z 29009KT 9999 FEW020CB SCT030 BKN070 12/06 Q1012 NOSIG
  • 201700Z 29011KT 270V330 9999 SCT020CB SCT040 14/06 Q1012 NOSIG

TAF TAF EIKN
Valido dal 20 a 18 ore il 21 a 18 ore UTC


201700Z 2018/2118 28010KT 9999 FEW020
BECMG 2101/2103 25005KT
PROB30
TEMPO 2102/2106 3000 BR BKN012
BECMG 2109/2112 22008KT
TEMPO 2115/2118 VRB03KT
Nessun NOTAM noto per questo aeroporto.



MetMap, La meteo Aeronautica in un colpo d'occhio ! - Copyright ORBIFLY Dicembre 2007 - Disclaimer

ORBIFLY MET'MAP TEAM :

Programmazione e sviluppo : Alexandra Zaïnal
Concezione e sviluppo : Baudouin d'Aumeries
Co-Programmazione e sviluppo : Marc-Olivier Méhu
Supporto tecnico e logistico : Manuel Goepfert
Aiuto per la traduzione : Arnaldo La Scala

Contatto : metmap@orbifly.com




FONTI E CREDITI :

   NOAA